sensor_id;sensor_type;location;lat;lon;timestamp;temperature;humidity
66728;DHT22;53641;44.274;19.890;2022-12-29T00:01:35;4.90;99.90
66728;DHT22;53641;44.274;19.890;2022-12-29T00:04:01;4.80;99.90
66728;DHT22;53641;44.274;19.890;2022-12-29T00:06:27;4.80;99.90
66728;DHT22;53641;44.274;19.890;2022-12-29T00:08:53;4.80;99.90
66728;DHT22;53641;44.274;19.890;2022-12-29T00:11:25;4.80;99.90
66728;DHT22;53641;44.274;19.890;2022-12-29T00:13:52;4.80;99.90
66728;DHT22;53641;44.274;19.890;2022-12-29T00:16:37;4.80;99.90
66728;DHT22;53641;44.274;19.890;2022-12-29T00:19:04;4.80;99.90
66728;DHT22;53641;44.274;19.890;2022-12-29T00:21:29;4.90;99.90
66728;DHT22;53641;44.274;19.890;2022-12-29T00:24:16;4.90;99.90
66728;DHT22;53641;44.274;19.890;2022-12-29T00:27:11;4.90;99.90
66728;DHT22;53641;44.274;19.890;2022-12-29T00:29:57;4.90;99.90
66728;DHT22;53641;44.274;19.890;2022-12-29T00:32:42;4.90;99.90
66728;DHT22;53641;44.274;19.890;2022-12-29T00:35:29;5.00;99.90
66728;DHT22;53641;44.274;19.890;2022-12-29T00:37:55;5.00;99.90
66728;DHT22;53641;44.274;19.890;2022-12-29T00:40:41;4.90;99.90
66728;DHT22;53641;44.274;19.890;2022-12-29T00:43:26;4.90;99.90
66728;DHT22;53641;44.274;19.890;2022-12-29T00:46:12;4.90;99.90
66728;DHT22;53641;44.274;19.890;2022-12-29T00:48:37;4.90;99.90
66728;DHT22;53641;44.274;19.890;2022-12-29T00:51:23;4.90;99.90
66728;DHT22;53641;44.274;19.890;2022-12-29T00:53:49;4.90;99.90
66728;DHT22;53641;44.274;19.890;2022-12-29T00:56:14;4.90;99.90
66728;DHT22;53641;44.274;19.890;2022-12-29T00:58:40;4.90;99.90
66728;DHT22;53641;44.274;19.890;2022-12-29T01:01:06;4.90;99.90
66728;DHT22;53641;44.274;19.890;2022-12-29T01:03:33;4.80;99.90
66728;DHT22;53641;44.274;19.890;2022-12-29T01:06:02;4.80;99.90
66728;DHT22;53641;44.274;19.890;2022-12-29T01:08:28;4.70;99.90
66728;DHT22;53641;44.274;19.890;2022-12-29T01:10:58;4.70;99.90
66728;DHT22;53641;44.274;19.890;2022-12-29T01:13:24;4.70;99.90
66728;DHT22;53641;44.274;19.890;2022-12-29T01:15:50;4.70;99.90
66728;DHT22;53641;44.274;19.890;2022-12-29T01:18:16;4.70;99.90
66728;DHT22;53641;44.274;19.890;2022-12-29T01:20:42;4.60;99.90
66728;DHT22;53641;44.274;19.890;2022-12-29T01:23:07;4.70;99.90
66728;DHT22;53641;44.274;19.890;2022-12-29T01:25:33;4.80;99.90
66728;DHT22;53641;44.274;19.890;2022-12-29T01:27:58;4.90;99.90
66728;DHT22;53641;44.274;19.890;2022-12-29T01:30:24;4.90;99.90
66728;DHT22;53641;44.274;19.890;2022-12-29T01:32:49;4.90;99.90
66728;DHT22;53641;44.274;19.890;2022-12-29T01:35:15;4.70;99.90
66728;DHT22;53641;44.274;19.890;2022-12-29T01:37:41;4.70;99.90
66728;DHT22;53641;44.274;19.890;2022-12-29T01:40:06;4.70;99.90
66728;DHT22;53641;44.274;19.890;2022-12-29T01:42:32;4.70;99.90
66728;DHT22;53641;44.274;19.890;2022-12-29T01:45:00;4.90;99.90
66728;DHT22;53641;44.274;19.890;2022-12-29T01:47:29;4.80;99.90
66728;DHT22;53641;44.274;19.890;2022-12-29T01:49:56;4.80;99.90
66728;DHT22;53641;44.274;19.890;2022-12-29T01:52:24;4.80;99.90
66728;DHT22;53641;44.274;19.890;2022-12-29T01:54:52;4.80;99.90
66728;DHT22;53641;44.274;19.890;2022-12-29T01:57:20;4.80;99.90
66728;DHT22;53641;44.274;19.890;2022-12-29T01:59:51;4.80;99.90
66728;DHT22;53641;44.274;19.890;2022-12-29T02:02:18;4.80;99.90
66728;DHT22;53641;44.274;19.890;2022-12-29T02:04:44;4.70;99.90
66728;DHT22;53641;44.274;19.890;2022-12-29T02:07:11;4.70;99.90
66728;DHT22;53641;44.274;19.890;2022-12-29T02:09:39;4.70;99.90
66728;DHT22;53641;44.274;19.890;2022-12-29T02:12:05;4.80;99.90
66728;DHT22;53641;44.274;19.890;2022-12-29T02:14:31;4.80;99.90
66728;DHT22;53641;44.274;19.890;2022-12-29T02:17:15;4.80;99.90
66728;DHT22;53641;44.274;19.890;2022-12-29T02:24:05;4.70;99.90
66728;DHT22;53641;44.274;19.890;2022-12-29T02:25:35;4.60;99.90
66728;DHT22;53641;44.274;19.890;2022-12-29T02:28:18;4.80;99.90
66728;DHT22;53641;44.274;19.890;2022-12-29T02:31:21;4.80;99.90
66728;DHT22;53641;44.274;19.890;2022-12-29T02:34:38;4.80;99.90
66728;DHT22;53641;44.274;19.890;2022-12-29T02:36:24;4.80;99.90
66728;DHT22;53641;44.274;19.890;2022-12-29T02:39:04;4.80;99.90
66728;DHT22;53641;44.274;19.890;2022-12-29T02:41:48;4.80;99.90
66728;DHT22;53641;44.274;19.890;2022-12-29T02:44:20;4.70;99.90
66728;DHT22;53641;44.274;19.890;2022-12-29T02:46:58;4.80;99.90
66728;DHT22;53641;44.274;19.890;2022-12-29T02:49:36;4.80;99.90
66728;DHT22;53641;44.274;19.890;2022-12-29T02:52:05;4.80;99.90
66728;DHT22;53641;44.274;19.890;2022-12-29T02:54:32;4.70;99.90
66728;DHT22;53641;44.274;19.890;2022-12-29T02:57:11;4.70;99.90
66728;DHT22;53641;44.274;19.890;2022-12-29T02:59:37;4.70;99.90
66728;DHT22;53641;44.274;19.890;2022-12-29T03:02:20;4.50;99.90
66728;DHT22;53641;44.274;19.890;2022-12-29T03:04:58;4.50;99.90
66728;DHT22;53641;44.274;19.890;2022-12-29T03:07:32;4.50;99.90
66728;DHT22;53641;44.274;19.890;2022-12-29T03:10:15;4.40;99.90
66728;DHT22;53641;44.274;19.890;2022-12-29T03:12:48;4.50;99.90
66728;DHT22;53641;44.274;19.890;2022-12-29T03:15:45;4.50;99.90
66728;DHT22;53641;44.274;19.890;2022-12-29T03:18:37;4.50;99.90
66728;DHT22;53641;44.274;19.890;2022-12-29T03:21:06;4.60;99.90
66728;DHT22;53641;44.274;19.890;2022-12-29T03:23:33;4.60;99.90
66728;DHT22;53641;44.274;19.890;2022-12-29T03:26:01;4.50;99.90
66728;DHT22;53641;44.274;19.890;2022-12-29T03:28:30;4.50;99.90
66728;DHT22;53641;44.274;19.890;2022-12-29T03:30:57;4.60;99.90
66728;DHT22;53641;44.274;19.890;2022-12-29T03:33:24;4.70;99.90
66728;DHT22;53641;44.274;19.890;2022-12-29T03:35:51;4.50;99.90
66728;DHT22;53641;44.274;19.890;2022-12-29T03:38:25;4.40;99.90
66728;DHT22;53641;44.274;19.890;2022-12-29T03:40:56;4.40;99.90
66728;DHT22;53641;44.274;19.890;2022-12-29T03:43:23;4.30;99.90
66728;DHT22;53641;44.274;19.890;2022-12-29T03:45:49;4.40;99.90
66728;DHT22;53641;44.274;19.890;2022-12-29T03:48:15;4.40;99.90
66728;DHT22;53641;44.274;19.890;2022-12-29T03:50:40;4.20;99.90
66728;DHT22;53641;44.274;19.890;2022-12-29T03:53:06;4.10;99.90
66728;DHT22;53641;44.274;19.890;2022-12-29T03:55:31;4.20;99.90
66728;DHT22;53641;44.274;19.890;2022-12-29T03:57:57;4.10;99.90
66728;DHT22;53641;44.274;19.890;2022-12-29T04:00:22;4.10;99.90
66728;DHT22;53641;44.274;19.890;2022-12-29T04:02:48;4.20;99.90
66728;DHT22;53641;44.274;19.890;2022-12-29T04:05:14;4.10;99.90
66728;DHT22;53641;44.274;19.890;2022-12-29T04:07:39;4.10;99.90
66728;DHT22;53641;44.274;19.890;2022-12-29T04:10:05;4.10;99.90
66728;DHT22;53641;44.274;19.890;2022-12-29T04:12:31;4.20;99.90
66728;DHT22;53641;44.274;19.890;2022-12-29T04:14:56;4.20;99.90
66728;DHT22;53641;44.274;19.890;2022-12-29T04:17:22;4.20;99.90
66728;DHT22;53641;44.274;19.890;2022-12-29T04:19:48;4.10;99.90
66728;DHT22;53641;44.274;19.890;2022-12-29T04:22:13;4.10;99.90
66728;DHT22;53641;44.274;19.890;2022-12-29T04:24:39;4.10;99.90
66728;DHT22;53641;44.274;19.890;2022-12-29T04:27:04;4.10;99.90
66728;DHT22;53641;44.274;19.890;2022-12-29T04:29:30;4.10;99.90
66728;DHT22;53641;44.274;19.890;2022-12-29T04:31:56;4.10;99.90
66728;DHT22;53641;44.274;19.890;2022-12-29T04:34:21;4.00;99.90
66728;DHT22;53641;44.274;19.890;2022-12-29T04:36:47;3.90;99.90
66728;DHT22;53641;44.274;19.890;2022-12-29T04:39:13;3.80;99.90
66728;DHT22;53641;44.274;19.890;2022-12-29T04:41:38;3.90;99.90
66728;DHT22;53641;44.274;19.890;2022-12-29T04:44:04;3.80;99.90
66728;DHT22;53641;44.274;19.890;2022-12-29T04:46:29;3.80;99.90
66728;DHT22;53641;44.274;19.890;2022-12-29T04:48:55;3.80;99.90
66728;DHT22;53641;44.274;19.890;2022-12-29T04:51:21;3.80;99.90
66728;DHT22;53641;44.274;19.890;2022-12-29T04:53:46;3.90;99.90
66728;DHT22;53641;44.274;19.890;2022-12-29T04:56:12;4.00;99.90
66728;DHT22;53641;44.274;19.890;2022-12-29T04:58:37;4.20;99.90
66728;DHT22;53641;44.274;19.890;2022-12-29T05:01:03;4.20;99.90
66728;DHT22;53641;44.274;19.890;2022-12-29T05:03:29;4.30;99.90
66728;DHT22;53641;44.274;19.890;2022-12-29T05:05:54;4.30;99.90
66728;DHT22;53641;44.274;19.890;2022-12-29T05:08:20;4.20;99.90
66728;DHT22;53641;44.274;19.890;2022-12-29T05:10:46;4.30;99.90
66728;DHT22;53641;44.274;19.890;2022-12-29T05:13:12;4.20;99.90
66728;DHT22;53641;44.274;19.890;2022-12-29T05:15:37;4.10;99.90
66728;DHT22;53641;44.274;19.890;2022-12-29T05:18:03;4.10;99.90
66728;DHT22;53641;44.274;19.890;2022-12-29T05:20:29;4.10;99.90
66728;DHT22;53641;44.274;19.890;2022-12-29T05:22:54;4.00;99.90
66728;DHT22;53641;44.274;19.890;2022-12-29T05:25:20;3.90;99.90
66728;DHT22;53641;44.274;19.890;2022-12-29T05:27:45;4.10;99.90
66728;DHT22;53641;44.274;19.890;2022-12-29T05:30:11;4.10;99.90
66728;DHT22;53641;44.274;19.890;2022-12-29T05:32:37;4.00;99.90
66728;DHT22;53641;44.274;19.890;2022-12-29T05:35:03;4.10;99.90
66728;DHT22;53641;44.274;19.890;2022-12-29T05:37:28;4.10;99.90
66728;DHT22;53641;44.274;19.890;2022-12-29T05:39:54;4.10;99.90
66728;DHT22;53641;44.274;19.890;2022-12-29T05:42:19;4.00;99.90
66728;DHT22;53641;44.274;19.890;2022-12-29T05:44:45;4.10;99.90
66728;DHT22;53641;44.274;19.890;2022-12-29T05:47:11;4.10;99.90
66728;DHT22;53641;44.274;19.890;2022-12-29T05:49:36;4.20;99.90
66728;DHT22;53641;44.274;19.890;2022-12-29T05:52:02;4.30;99.90
66728;DHT22;53641;44.274;19.890;2022-12-29T05:54:28;4.30;99.90
66728;DHT22;53641;44.274;19.890;2022-12-29T05:56:53;4.20;99.90
66728;DHT22;53641;44.274;19.890;2022-12-29T05:59:19;4.20;99.90
66728;DHT22;53641;44.274;19.890;2022-12-29T06:01:45;4.20;99.90
66728;DHT22;53641;44.274;19.890;2022-12-29T06:04:10;4.20;99.90
66728;DHT22;53641;44.274;19.890;2022-12-29T06:06:36;4.20;99.90
66728;DHT22;53641;44.274;19.890;2022-12-29T06:09:02;4.30;99.90
66728;DHT22;53641;44.274;19.890;2022-12-29T06:11:28;4.30;99.90
66728;DHT22;53641;44.274;19.890;2022-12-29T06:13:53;4.20;99.90
66728;DHT22;53641;44.274;19.890;2022-12-29T06:16:19;4.20;99.90
66728;DHT22;53641;44.274;19.890;2022-12-29T06:18:44;4.00;99.90
66728;DHT22;53641;44.274;19.890;2022-12-29T06:21:10;4.10;99.90
66728;DHT22;53641;44.274;19.890;2022-12-29T06:23:36;4.10;99.90
66728;DHT22;53641;44.274;19.890;2022-12-29T06:26:01;4.10;99.90
66728;DHT22;53641;44.274;19.890;2022-12-29T06:28:27;4.10;99.90
66728;DHT22;53641;44.274;19.890;2022-12-29T06:30:52;4.10;99.90
66728;DHT22;53641;44.274;19.890;2022-12-29T06:33:18;4.00;99.90
66728;DHT22;53641;44.274;19.890;2022-12-29T06:35:44;3.90;99.90
66728;DHT22;53641;44.274;19.890;2022-12-29T06:38:11;3.80;99.90
66728;DHT22;53641;44.274;19.890;2022-12-29T06:40:36;3.80;99.90
66728;DHT22;53641;44.274;19.890;2022-12-29T06:43:02;3.80;99.90
66728;DHT22;53641;44.274;19.890;2022-12-29T06:45:28;3.80;99.90
66728;DHT22;53641;44.274;19.890;2022-12-29T06:47:53;3.80;99.90
66728;DHT22;53641;44.274;19.890;2022-12-29T06:50:19;3.80;99.90
66728;DHT22;53641;44.274;19.890;2022-12-29T06:52:44;3.90;99.90
66728;DHT22;53641;44.274;19.890;2022-12-29T06:55:18;3.90;99.90
66728;DHT22;53641;44.274;19.890;2022-12-29T06:57:44;4.00;99.90
66728;DHT22;53641;44.274;19.890;2022-12-29T07:00:10;4.00;99.90
66728;DHT22;53641;44.274;19.890;2022-12-29T07:02:36;4.20;99.90
66728;DHT22;53641;44.274;19.890;2022-12-29T07:05:01;4.20;99.90
66728;DHT22;53641;44.274;19.890;2022-12-29T07:07:27;4.30;99.90
66728;DHT22;53641;44.274;19.890;2022-12-29T07:09:56;4.30;99.90
66728;DHT22;53641;44.274;19.890;2022-12-29T07:12:24;4.40;99.90
66728;DHT22;53641;44.274;19.890;2022-12-29T07:14:52;4.50;99.90
66728;DHT22;53641;44.274;19.890;2022-12-29T07:17:18;4.40;99.90
66728;DHT22;53641;44.274;19.890;2022-12-29T07:19:44;4.50;99.90
66728;DHT22;53641;44.274;19.890;2022-12-29T07:22:10;4.60;99.90
66728;DHT22;53641;44.274;19.890;2022-12-29T07:24:35;4.70;99.90
66728;DHT22;53641;44.274;19.890;2022-12-29T07:27:01;4.70;99.90
66728;DHT22;53641;44.274;19.890;2022-12-29T07:29:26;4.80;99.90
66728;DHT22;53641;44.274;19.890;2022-12-29T07:31:52;5.00;99.90
66728;DHT22;53641;44.274;19.890;2022-12-29T07:34:17;5.10;99.90
66728;DHT22;53641;44.274;19.890;2022-12-29T07:36:43;5.30;99.90
66728;DHT22;53641;44.274;19.890;2022-12-29T07:39:09;5.60;99.90
66728;DHT22;53641;44.274;19.890;2022-12-29T07:41:34;5.90;99.90
66728;DHT22;53641;44.274;19.890;2022-12-29T07:44:00;6.30;99.90
66728;DHT22;53641;44.274;19.890;2022-12-29T07:46:25;6.60;99.90
66728;DHT22;53641;44.274;19.890;2022-12-29T07:48:52;6.80;99.90
66728;DHT22;53641;44.274;19.890;2022-12-29T07:51:17;7.00;99.90
66728;DHT22;53641;44.274;19.890;2022-12-29T07:53:43;7.20;99.90
66728;DHT22;53641;44.274;19.890;2022-12-29T07:56:08;7.20;99.90
66728;DHT22;53641;44.274;19.890;2022-12-29T07:58:34;7.20;99.90
66728;DHT22;53641;44.274;19.890;2022-12-29T08:00:59;7.30;99.90
66728;DHT22;53641;44.274;19.890;2022-12-29T08:03:25;7.50;99.90
66728;DHT22;53641;44.274;19.890;2022-12-29T08:05:51;7.70;99.90
66728;DHT22;53641;44.274;19.890;2022-12-29T08:08:16;7.90;99.90
66728;DHT22;53641;44.274;19.890;2022-12-29T08:10:42;7.90;99.90
66728;DHT22;53641;44.274;19.890;2022-12-29T08:13:08;7.90;99.90
66728;DHT22;53641;44.274;19.890;2022-12-29T08:15:33;7.80;99.90
66728;DHT22;53641;44.274;19.890;2022-12-29T08:17:59;7.80;99.90
66728;DHT22;53641;44.274;19.890;2022-12-29T08:20:24;7.70;99.90
66728;DHT22;53641;44.274;19.890;2022-12-29T08:22:50;7.60;99.90
66728;DHT22;53641;44.274;19.890;2022-12-29T08:25:16;7.70;99.90
66728;DHT22;53641;44.274;19.890;2022-12-29T08:27:41;7.80;99.90
66728;DHT22;53641;44.274;19.890;2022-12-29T08:30:07;7.90;99.90
66728;DHT22;53641;44.274;19.890;2022-12-29T08:32:33;8.10;99.90
66728;DHT22;53641;44.274;19.890;2022-12-29T08:34:59;8.50;99.90
66728;DHT22;53641;44.274;19.890;2022-12-29T08:37:27;8.80;99.90
66728;DHT22;53641;44.274;19.890;2022-12-29T08:39:56;8.80;99.90
66728;DHT22;53641;44.274;19.890;2022-12-29T08:42:23;8.80;99.90
66728;DHT22;53641;44.274;19.890;2022-12-29T08:44:48;8.90;99.90
66728;DHT22;53641;44.274;19.890;2022-12-29T08:47:14;8.90;99.90
66728;DHT22;53641;44.274;19.890;2022-12-29T08:49:39;9.10;99.90
66728;DHT22;53641;44.274;19.890;2022-12-29T08:52:05;9.30;99.90
66728;DHT22;53641;44.274;19.890;2022-12-29T08:54:31;9.40;99.90
66728;DHT22;53641;44.274;19.890;2022-12-29T08:56:56;9.40;99.90
66728;DHT22;53641;44.274;19.890;2022-12-29T08:59:24;9.50;99.90
66728;DHT22;53641;44.274;19.890;2022-12-29T09:01:53;9.40;99.90
66728;DHT22;53641;44.274;19.890;2022-12-29T09:04:21;9.50;99.90
66728;DHT22;53641;44.274;19.890;2022-12-29T09:06:48;9.30;99.90
66728;DHT22;53641;44.274;19.890;2022-12-29T09:09:14;9.30;99.90
66728;DHT22;53641;44.274;19.890;2022-12-29T09:11:40;9.20;99.90
66728;DHT22;53641;44.274;19.890;2022-12-29T09:14:06;9.20;99.90
66728;DHT22;53641;44.274;19.890;2022-12-29T09:16:31;9.10;99.90
66728;DHT22;53641;44.274;19.890;2022-12-29T09:18:57;8.90;99.90
66728;DHT22;53641;44.274;19.890;2022-12-29T09:21:23;8.60;99.90
66728;DHT22;53641;44.274;19.890;2022-12-29T09:23:48;8.40;99.90
66728;DHT22;53641;44.274;19.890;2022-12-29T09:26:14;8.50;99.90
66728;DHT22;53641;44.274;19.890;2022-12-29T09:28:40;8.70;99.90
66728;DHT22;53641;44.274;19.890;2022-12-29T09:31:05;8.90;99.90
66728;DHT22;53641;44.274;19.890;2022-12-29T09:33:31;9.30;99.90
66728;DHT22;53641;44.274;19.890;2022-12-29T09:35:59;9.70;99.90
66728;DHT22;53641;44.274;19.890;2022-12-29T09:38:25;10.00;99.90
66728;DHT22;53641;44.274;19.890;2022-12-29T09:41:17;10.20;99.90
66728;DHT22;53641;44.274;19.890;2022-12-29T09:43:59;10.40;99.90
66728;DHT22;53641;44.274;19.890;2022-12-29T09:46:28;10.40;99.90
66728;DHT22;53641;44.274;19.890;2022-12-29T09:49:32;10.50;99.90
66728;DHT22;53641;44.274;19.890;2022-12-29T09:51:41;10.70;99.90
66728;DHT22;53641;44.274;19.890;2022-12-29T09:54:28;10.90;99.90
66728;DHT22;53641;44.274;19.890;2022-12-29T09:56:56;10.90;99.90
66728;DHT22;53641;44.274;19.890;2022-12-29T09:59:37;11.10;99.90
66728;DHT22;53641;44.274;19.890;2022-12-29T10:02:10;11.10;99.90
66728;DHT22;53641;44.274;19.890;2022-12-29T10:04:38;11.00;99.90
66728;DHT22;53641;44.274;19.890;2022-12-29T10:07:09;10.80;99.90
66728;DHT22;53641;44.274;19.890;2022-12-29T10:09:39;10.50;99.90
66728;DHT22;53641;44.274;19.890;2022-12-29T10:12:16;10.40;99.90
66728;DHT22;53641;44.274;19.890;2022-12-29T10:16:15;10.30;99.90
66728;DHT22;53641;44.274;19.890;2022-12-29T10:17:41;10.10;99.90
66728;DHT22;53641;44.274;19.890;2022-12-29T10:21:28;10.10;99.90
66728;DHT22;53641;44.274;19.890;2022-12-29T10:23:00;10.00;99.90
66728;DHT22;53641;44.274;19.890;2022-12-29T10:25:30;10.00;99.90
66728;DHT22;53641;44.274;19.890;2022-12-29T10:27:56;10.00;99.90
66728;DHT22;53641;44.274;19.890;2022-12-29T10:30:24;10.00;99.90
66728;DHT22;53641;44.274;19.890;2022-12-29T10:33:01;10.10;99.90
66728;DHT22;53641;44.274;19.890;2022-12-29T10:35:32;10.20;99.90
66728;DHT22;53641;44.274;19.890;2022-12-29T10:38:02;10.40;99.90
66728;DHT22;53641;44.274;19.890;2022-12-29T10:40:36;10.70;99.90
66728;DHT22;53641;44.274;19.890;2022-12-29T10:43:07;11.00;99.90
66728;DHT22;53641;44.274;19.890;2022-12-29T10:45:38;11.20;99.90
66728;DHT22;53641;44.274;19.890;2022-12-29T10:48:05;11.30;99.90
66728;DHT22;53641;44.274;19.890;2022-12-29T10:50:34;11.30;99.90
66728;DHT22;53641;44.274;19.890;2022-12-29T10:53:00;11.40;99.90
66728;DHT22;53641;44.274;19.890;2022-12-29T10:55:28;11.30;99.90
66728;DHT22;53641;44.274;19.890;2022-12-29T10:57:56;11.30;99.90
66728;DHT22;53641;44.274;19.890;2022-12-29T11:00:24;11.40;99.90
66728;DHT22;53641;44.274;19.890;2022-12-29T11:03:50;11.40;99.90
66728;DHT22;53641;44.274;19.890;2022-12-29T11:05:37;11.40;99.90
66728;DHT22;53641;44.274;19.890;2022-12-29T11:08:09;11.50;99.90
66728;DHT22;53641;44.274;19.890;2022-12-29T11:10:40;11.60;99.90
66728;DHT22;53641;44.274;19.890;2022-12-29T11:13:18;11.60;99.90
66728;DHT22;53641;44.274;19.890;2022-12-29T11:15:47;11.70;99.90
66728;DHT22;53641;44.274;19.890;2022-12-29T11:18:17;11.80;99.90
66728;DHT22;53641;44.274;19.890;2022-12-29T11:20:43;11.90;99.90
66728;DHT22;53641;44.274;19.890;2022-12-29T11:23:23;11.90;99.90
66728;DHT22;53641;44.274;19.890;2022-12-29T11:26:05;12.00;99.90
66728;DHT22;53641;44.274;19.890;2022-12-29T11:28:31;12.00;99.90
66728;DHT22;53641;44.274;19.890;2022-12-29T11:30:59;12.10;99.90
66728;DHT22;53641;44.274;19.890;2022-12-29T11:33:27;12.10;99.90
66728;DHT22;53641;44.274;19.890;2022-12-29T11:35:56;12.10;99.90
66728;DHT22;53641;44.274;19.890;2022-12-29T11:38:30;12.10;99.90
66728;DHT22;53641;44.274;19.890;2022-12-29T11:40:57;12.10;99.90
66728;DHT22;53641;44.274;19.890;2022-12-29T11:43:29;12.20;99.90
66728;DHT22;53641;44.274;19.890;2022-12-29T11:46:17;12.30;99.90
66728;DHT22;53641;44.274;19.890;2022-12-29T11:48:50;12.30;99.90
66728;DHT22;53641;44.274;19.890;2022-12-29T11:51:26;12.30;99.90
66728;DHT22;53641;44.274;19.890;2022-12-29T11:53:54;12.40;99.90
66728;DHT22;53641;44.274;19.890;2022-12-29T11:56:39;12.50;99.90
66728;DHT22;53641;44.274;19.890;2022-12-29T11:59:37;12.50;99.90
66728;DHT22;53641;44.274;19.890;2022-12-29T12:01:51;12.60;99.90
66728;DHT22;53641;44.274;19.890;2022-12-29T12:04:18;12.70;99.90
66728;DHT22;53641;44.274;19.890;2022-12-29T12:06:53;12.70;99.90
66728;DHT22;53641;44.274;19.890;2022-12-29T12:09:25;12.80;99.90
66728;DHT22;53641;44.274;19.890;2022-12-29T12:11:52;12.90;99.90
66728;DHT22;53641;44.274;19.890;2022-12-29T12:14:20;12.90;99.90
66728;DHT22;53641;44.274;19.890;2022-12-29T12:16:51;12.90;99.90
66728;DHT22;53641;44.274;19.890;2022-12-29T12:19:54;12.90;99.90
66728;DHT22;53641;44.274;19.890;2022-12-29T12:22:25;12.90;99.90
66728;DHT22;53641;44.274;19.890;2022-12-29T12:24:58;12.90;99.90
66728;DHT22;53641;44.274;19.890;2022-12-29T12:27:38;12.90;99.90
66728;DHT22;53641;44.274;19.890;2022-12-29T12:30:15;13.00;99.90
66728;DHT22;53641;44.274;19.890;2022-12-29T12:32:44;13.10;99.90
66728;DHT22;53641;44.274;19.890;2022-12-29T12:35:15;13.20;99.90
66728;DHT22;53641;44.274;19.890;2022-12-29T12:39:23;13.50;99.90
66728;DHT22;53641;44.274;19.890;2022-12-29T12:40:53;13.70;99.90
66728;DHT22;53641;44.274;19.890;2022-12-29T12:44:37;13.90;99.90
66728;DHT22;53641;44.274;19.890;2022-12-29T12:47:18;14.10;99.90
66728;DHT22;53641;44.274;19.890;2022-12-29T12:48:47;14.20;99.90
66728;DHT22;53641;44.274;19.890;2022-12-29T12:51:21;14.20;99.90
66728;DHT22;53641;44.274;19.890;2022-12-29T12:55:18;14.40;99.80
66728;DHT22;53641;44.274;19.890;2022-12-29T12:56:43;14.60;99.40
66728;DHT22;53641;44.274;19.890;2022-12-29T13:00:26;14.80;98.70
66728;DHT22;53641;44.274;19.890;2022-12-29T13:02:01;15.00;96.50
66728;DHT22;53641;44.274;19.890;2022-12-29T13:04:37;15.20;95.20
66728;DHT22;53641;44.274;19.890;2022-12-29T13:07:27;15.20;95.00
66728;DHT22;53641;44.274;19.890;2022-12-29T13:09:59;15.30;92.60
66728;DHT22;53641;44.274;19.890;2022-12-29T13:12:42;15.30;92.20
66728;DHT22;53641;44.274;19.890;2022-12-29T13:15:14;15.30;91.90
66728;DHT22;53641;44.274;19.890;2022-12-29T13:17:57;15.40;92.40
66728;DHT22;53641;44.274;19.890;2022-12-29T13:20:39;15.40;93.10
66728;DHT22;53641;44.274;19.890;2022-12-29T13:23:09;15.40;93.20
66728;DHT22;53641;44.274;19.890;2022-12-29T13:25:39;15.40;94.10
66728;DHT22;53641;44.274;19.890;2022-12-29T13:28:10;15.30;93.70
66728;DHT22;53641;44.274;19.890;2022-12-29T13:30:44;15.30;95.40
66728;DHT22;53641;44.274;19.890;2022-12-29T13:33:49;15.20;97.70
66728;DHT22;53641;44.274;19.890;2022-12-29T13:36:00;15.20;98.50
66728;DHT22;53641;44.274;19.890;2022-12-29T13:38:42;15.20;98.20
66728;DHT22;53641;44.274;19.890;2022-12-29T13:41:09;15.20;97.10
66728;DHT22;53641;44.274;19.890;2022-12-29T13:43:37;15.20;97.80
66728;DHT22;53641;44.274;19.890;2022-12-29T13:46:20;15.10;98.40
66728;DHT22;53641;44.274;19.890;2022-12-29T13:49:04;15.00;97.20
66728;DHT22;53641;44.274;19.890;2022-12-29T13:51:32;15.10;97.50
66728;DHT22;53641;44.274;19.890;2022-12-29T13:54:05;15.00;98.10
66728;DHT22;53641;44.274;19.890;2022-12-29T13:56:38;14.90;98.80
66728;DHT22;53641;44.274;19.890;2022-12-29T13:59:09;14.90;99.10
66728;DHT22;53641;44.274;19.890;2022-12-29T14:01:49;14.80;99.40
66728;DHT22;53641;44.274;19.890;2022-12-29T14:04:24;14.80;99.90
66728;DHT22;53641;44.274;19.890;2022-12-29T14:06:58;14.70;99.90
66728;DHT22;53641;44.274;19.890;2022-12-29T14:09:38;14.80;99.90
66728;DHT22;53641;44.274;19.890;2022-12-29T14:13:23;14.80;99.90
66728;DHT22;53641;44.274;19.890;2022-12-29T14:14:50;14.70;99.90
66728;DHT22;53641;44.274;19.890;2022-12-29T14:17:18;14.60;99.90
66728;DHT22;53641;44.274;19.890;2022-12-29T14:19:44;14.60;99.90
66728;DHT22;53641;44.274;19.890;2022-12-29T14:22:10;14.50;99.90
66728;DHT22;53641;44.274;19.890;2022-12-29T14:24:44;14.50;99.90
66728;DHT22;53641;44.274;19.890;2022-12-29T14:30:02;14.40;99.90
66728;DHT22;53641;44.274;19.890;2022-12-29T14:32:36;14.30;99.90
66728;DHT22;53641;44.274;19.890;2022-12-29T14:35:37;14.30;99.90
66728;DHT22;53641;44.274;19.890;2022-12-29T14:37:47;14.20;99.90
66728;DHT22;53641;44.274;19.890;2022-12-29T14:40:29;14.20;99.90
66728;DHT22;53641;44.274;19.890;2022-12-29T14:42:55;14.10;99.90
66728;DHT22;53641;44.274;19.890;2022-12-29T14:45:28;14.00;99.90
66728;DHT22;53641;44.274;19.890;2022-12-29T14:47:54;14.00;99.90
66728;DHT22;53641;44.274;19.890;2022-12-29T14:50:22;14.00;99.90
66728;DHT22;53641;44.274;19.890;2022-12-29T14:52:58;14.00;99.90
66728;DHT22;53641;44.274;19.890;2022-12-29T14:55:42;13.90;99.90
66728;DHT22;53641;44.274;19.890;2022-12-29T14:58:14;13.90;99.90
66728;DHT22;53641;44.274;19.890;2022-12-29T15:00:41;13.90;99.90
66728;DHT22;53641;44.274;19.890;2022-12-29T15:03:12;13.80;99.90
66728;DHT22;53641;44.274;19.890;2022-12-29T15:05:43;13.80;99.90
66728;DHT22;53641;44.274;19.890;2022-12-29T15:08:10;13.70;99.90
66728;DHT22;53641;44.274;19.890;2022-12-29T15:10:38;13.60;99.90
66728;DHT22;53641;44.274;19.890;2022-12-29T15:13:05;13.60;99.90
66728;DHT22;53641;44.274;19.890;2022-12-29T15:15:39;13.50;99.90
66728;DHT22;53641;44.274;19.890;2022-12-29T15:18:15;13.50;99.90
66728;DHT22;53641;44.274;19.890;2022-12-29T15:20:45;13.40;99.90
66728;DHT22;53641;44.274;19.890;2022-12-29T15:23:11;13.30;99.90
66728;DHT22;53641;44.274;19.890;2022-12-29T15:25:51;13.30;99.90
66728;DHT22;53641;44.274;19.890;2022-12-29T15:28:18;13.30;99.90
66728;DHT22;53641;44.274;19.890;2022-12-29T15:30:52;13.20;99.90
66728;DHT22;53641;44.274;19.890;2022-12-29T15:33:18;13.20;99.90
66728;DHT22;53641;44.274;19.890;2022-12-29T15:35:44;13.20;99.90
66728;DHT22;53641;44.274;19.890;2022-12-29T15:38:22;13.10;99.90
66728;DHT22;53641;44.274;19.890;2022-12-29T15:40:51;13.10;99.90
66728;DHT22;53641;44.274;19.890;2022-12-29T15:43:34;13.10;99.90
66728;DHT22;53641;44.274;19.890;2022-12-29T15:46:02;13.00;99.90
66728;DHT22;53641;44.274;19.890;2022-12-29T15:48:28;13.00;99.90
66728;DHT22;53641;44.274;19.890;2022-12-29T15:50:55;12.90;99.90